Time;durP1;ratioP1;P1;durP2;ratioP2;P2;SDS_P1;SDS_P2;PMS_P1;PMS_P2;Temp;Humidity;BMP_temperature;BMP_pressure;BME280_temperature;BME280_humidity;BME280_pressure;Samples;Min_cycle;Max_cycle;Signal;HPM_P1;HPM_P2
2023/05/28 00:00:35;;;;;;;10.07;3.70;;;17.60;83.30;;;;;;10487363;28;20025;-67
2023/05/28 00:05:35;;;;;;;10.52;3.70;;;17.60;83.30;;;;;;10487915;28;20035;-67
2023/05/28 00:10:36;;;;;;;8.10;3.60;;;17.50;83.30;;;;;;10484889;28;20060;-67
2023/05/28 00:15:37;;;;;;;8.70;3.33;;;17.50;83.30;;;;;;10484296;28;20040;-67
2023/05/28 00:20:38;;;;;;;9.50;3.22;;;17.50;83.30;;;;;;10490289;28;20395;-67
2023/05/28 00:25:39;;;;;;;6.63;3.25;;;17.40;83.30;;;;;;10481219;28;20028;-67
2023/05/28 00:30:39;;;;;;;7.95;3.55;;;17.40;83.30;;;;;;10477931;28;20375;-68
2023/05/28 00:35:40;;;;;;;8.65;3.60;;;17.40;83.40;;;;;;10482155;28;20024;-67
2023/05/28 00:40:44;;;;;;;8.80;3.80;;;17.30;83.40;;;;;;10484640;28;20025;-67
2023/05/28 00:45:45;;;;;;;9.35;3.58;;;17.30;83.40;;;;;;10487250;28;20729;-67
2023/05/28 00:50:46;;;;;;;7.75;3.22;;;17.30;83.40;;;;;;10491182;28;20027;-67
2023/05/28 00:55:53;;;;;;;6.25;3.00;;;17.20;83.40;;;;;;10489710;28;20043;-67
2023/05/28 01:00:54;;;;;;;11.82;3.80;;;17.20;83.40;;;;;;10478934;28;20414;-67
2023/05/28 01:05:55;;;;;;;9.15;3.40;;;17.10;83.40;;;;;;10480424;28;20477;-67
2023/05/28 01:10:55;;;;;;;11.25;3.85;;;17.10;83.40;;;;;;10499569;28;20044;-67
2023/05/28 01:15:56;;;;;;;7.72;3.65;;;17.10;83.40;;;;;;10488146;28;20105;-67
2023/05/28 01:20:58;;;;;;;8.45;2.97;;;17.10;83.40;;;;;;10491134;28;20024;-67
2023/05/28 01:25:59;;;;;;;7.53;3.88;;;16.90;83.30;;;;;;10481688;28;20021;-67
2023/05/28 01:31:00;;;;;;;8.52;3.50;;;16.90;83.30;;;;;;10480236;28;21027;-68
2023/05/28 01:36:05;;;;;;;10.00;3.60;;;16.90;83.30;;;;;;10479614;28;20036;-67
2023/05/28 01:41:08;;;;;;;7.10;3.17;;;16.90;83.30;;;;;;10480728;28;20058;-67
2023/05/28 01:46:09;;;;;;;7.40;3.35;;;16.90;83.30;;;;;;10486328;28;20025;-67
2023/05/28 01:51:10;;;;;;;7.82;3.13;;;16.90;83.30;;;;;;10489862;28;20028;-67
2023/05/28 01:56:10;;;;;;;8.10;3.13;;;16.90;83.30;;;;;;10487699;28;20048;-67
2023/05/28 02:01:31;;;;;;;8.15;3.30;;;16.80;83.20;;;;;;10481831;28;20030;-67
2023/05/28 02:06:33;;;;;;;7.53;3.10;;;16.80;83.20;;;;;;10494711;28;20013;-67
2023/05/28 02:11:33;;;;;;;8.45;3.28;;;16.80;83.20;;;;;;10486838;28;20062;-67
2023/05/28 02:16:35;;;;;;;7.38;3.30;;;16.70;83.20;;;;;;10496650;28;20063;-67
2023/05/28 02:21:36;;;;;;;6.00;3.08;;;16.70;83.20;;;;;;10486051;28;20061;-67
2023/05/28 02:26:36;;;;;;;7.45;3.47;;;16.70;83.20;;;;;;10474420;28;20021;-67
2023/05/28 02:31:37;;;;;;;7.90;3.28;;;16.70;83.20;;;;;;10496076;28;20407;-68
2023/05/28 02:36:37;;;;;;;7.32;2.92;;;16.60;83.20;;;;;;10486291;28;20057;-67
2023/05/28 02:41:38;;;;;;;10.13;3.58;;;16.60;83.20;;;;;;10475858;28;20028;-67
2023/05/28 02:46:39;;;;;;;9.98;3.40;;;16.60;83.20;;;;;;10483435;28;20023;-67
2023/05/28 02:51:39;;;;;;;11.23;4.18;;;16.50;83.10;;;;;;10496216;28;20051;-67
2023/05/28 02:56:40;;;;;;;9.40;3.60;;;16.50;83.20;;;;;;10488264;28;20031;-67
2023/05/28 03:01:41;;;;;;;7.47;3.10;;;16.50;83.20;;;;;;10494514;28;20408;-66
2023/05/28 03:06:41;;;;;;;6.63;3.08;;;16.40;83.10;;;;;;10489456;28;21225;-66
2023/05/28 03:11:42;;;;;;;7.38;3.25;;;17.10;83.50;;;;;;10487769;28;20291;-66
2023/05/28 03:16:43;;;;;;;8.05;2.92;;;16.40;83.20;;;;;;10480068;28;20097;-66
2023/05/28 03:21:43;;;;;;;7.57;3.03;;;16.50;83.30;;;;;;10482851;28;20040;-66
2023/05/28 03:26:44;;;;;;;6.47;2.70;;;16.40;83.20;;;;;;10484795;28;20049;-66
2023/05/28 03:31:46;;;;;;;7.88;3.63;;;16.40;83.20;;;;;;10490986;28;20074;-66
2023/05/28 03:36:47;;;;;;;6.15;3.15;;;16.30;83.20;;;;;;10495575;28;20016;-66
2023/05/28 03:41:48;;;;;;;5.93;2.90;;;16.30;83.20;;;;;;10486772;28;20380;-66
2023/05/28 03:46:49;;;;;;;6.28;3.03;;;16.30;83.20;;;;;;10495705;28;20020;-66
2023/05/28 03:51:50;;;;;;;8.18;2.70;;;16.30;83.20;;;;;;10499196;28;20020;-66
2023/05/28 03:56:50;;;;;;;8.93;3.20;;;16.30;83.20;;;;;;10477595;28;20029;-66
2023/05/28 04:01:51;;;;;;;9.07;3.78;;;16.20;83.20;;;;;;10489493;28;20028;-66
2023/05/28 04:06:51;;;;;;;6.63;2.75;;;16.20;83.20;;;;;;10490880;28;20548;-66
2023/05/28 04:11:52;;;;;;;7.43;2.83;;;16.20;83.20;;;;;;10492274;28;20024;-66
2023/05/28 04:16:53;;;;;;;5.05;3.00;;;16.20;83.20;;;;;;10501268;28;20020;-66
2023/05/28 04:21:54;;;;;;;7.63;2.80;;;16.20;83.30;;;;;;10495166;28;20020;-66
2023/05/28 04:26:56;;;;;;;4.97;2.75;;;16.10;83.20;;;;;;10497079;28;20030;-66
2023/05/28 04:31:57;;;;;;;6.25;2.85;;;16.10;83.20;;;;;;10490439;28;20055;-66
2023/05/28 04:36:59;;;;;;;9.10;3.05;;;16.20;83.30;;;;;;10476558;28;20056;-67
2023/05/28 04:42:03;;;;;;;5.88;3.10;;;16.10;83.20;;;;;;10491684;28;20554;-66
2023/05/28 04:47:04;;;;;;;7.88;2.92;;;16.10;83.20;;;;;;10496945;28;20070;-66
2023/05/28 04:52:05;;;;;;;8.50;3.63;;;16.10;83.20;;;;;;10488006;28;20025;-66
2023/05/28 04:57:06;;;;;;;4.28;2.53;;;16.10;83.20;;;;;;10493849;28;20036;-66
2023/05/28 05:02:06;;;;;;;7.25;2.92;;;16.10;83.20;;;;;;10478398;28;20389;-66
2023/05/28 05:07:07;;;;;;;8.52;3.47;;;16.10;83.20;;;;;;10467315;28;20017;-67
2023/05/28 05:12:08;;;;;;;7.68;3.25;;;16.00;83.20;;;;;;10484518;28;20036;-66
2023/05/28 05:17:10;;;;;;;8.63;3.00;;;16.10;83.20;;;;;;10472763;28;20335;-66
2023/05/28 05:22:11;;;;;;;7.93;3.08;;;16.10;83.20;;;;;;10485641;28;20016;-66
2023/05/28 05:27:11;;;;;;;5.97;2.90;;;16.10;83.20;;;;;;10490047;28;20407;-66
2023/05/28 05:32:12;;;;;;;8.25;3.50;;;16.10;83.70;;;;;;10490091;28;20131;-66
2023/05/28 05:37:13;;;;;;;9.18;3.05;;;16.00;83.10;;;;;;10487462;28;20391;-66
2023/05/28 05:42:13;;;;;;;5.88;3.20;;;16.10;83.20;;;;;;10480095;28;20025;-67
2023/05/28 05:47:14;;;;;;;6.35;2.70;;;16.00;83.10;;;;;;10478248;28;20044;-66
2023/05/28 05:52:15;;;;;;;5.50;2.63;;;16.10;83.10;;;;;;10483985;28;20027;-66
2023/05/28 05:57:17;;;;;;;7.63;2.60;;;16.00;83.10;;;;;;10478654;28;20039;-66
2023/05/28 06:02:18;;;;;;;7.38;2.72;;;16.00;83.10;;;;;;10464070;28;20043;-67
2023/05/28 06:07:18;;;;;;;6.13;2.58;;;16.10;83.20;;;;;;10471682;28;20492;-66
2023/05/28 06:12:19;;;;;;;4.72;2.35;;;16.00;83.10;;;;;;10472539;28;20538;-65
2023/05/28 06:17:20;;;;;;;5.57;2.80;;;16.00;83.10;;;;;;10487888;28;20155;-66
2023/05/28 06:22:21;;;;;;;8.27;3.15;;;16.10;83.20;;;;;;10480443;28;20081;-66
2023/05/28 06:27:22;;;;;;;8.68;2.78;;;16.00;83.10;;;;;;10478472;28;20400;-66
2023/05/28 06:32:23;;;;;;;6.68;3.00;;;16.00;83.70;;;;;;10474360;28;20017;-66
2023/05/28 06:37:23;;;;;;;6.63;2.80;;;16.00;83.10;;;;;;10472563;28;20074;-66
2023/05/28 06:42:24;;;;;;;5.45;3.08;;;16.00;83.10;;;;;;10479040;28;20150;-66
2023/05/28 06:47:25;;;;;;;5.03;2.63;;;16.00;83.10;;;;;;10484829;28;20092;-66
2023/05/28 06:52:27;;;;;;;5.75;2.78;;;16.10;83.10;;;;;;10482152;28;20062;-65
2023/05/28 06:57:27;;;;;;;9.65;2.83;;;16.10;83.20;;;;;;10478373;28;20133;-66
2023/05/28 07:02:28;;;;;;;6.60;2.67;;;16.10;83.20;;;;;;10480349;28;20061;-66
2023/05/28 07:07:28;;;;;;;5.70;3.13;;;16.10;83.20;;;;;;10482016;28;20036;-66
2023/05/28 07:12:29;;;;;;;5.15;2.83;;;16.20;83.20;;;;;;10492363;28;20033;-67
2023/05/28 07:17:30;;;;;;;5.18;2.55;;;16.20;83.30;;;;;;10488598;28;20028;-66
2023/05/28 07:22:30;;;;;;;7.90;3.00;;;16.20;83.30;;;;;;10483858;28;20082;-66
2023/05/28 07:27:31;;;;;;;5.30;2.30;;;16.20;83.30;;;;;;10482336;28;20400;-66
2023/05/28 07:32:31;;;;;;;4.80;2.60;;;16.20;83.20;;;;;;10496069;28;20017;-66
2023/05/28 07:37:32;;;;;;;5.47;2.75;;;16.30;83.30;;;;;;10496863;28;20063;-66
2023/05/28 07:42:33;;;;;;;5.88;2.80;;;16.30;83.30;;;;;;10485496;28;20025;-66
2023/05/28 07:47:33;;;;;;;4.82;2.28;;;16.30;83.40;;;;;;10484103;28;20445;-66
2023/05/28 07:52:34;;;;;;;3.97;2.05;;;16.40;83.40;;;;;;10482824;28;20064;-66
2023/05/28 07:57:35;;;;;;;5.30;2.63;;;16.40;83.30;;;;;;10484149;28;20016;-66
2023/05/28 08:02:35;;;;;;;6.80;2.70;;;16.50;83.40;;;;;;10484711;28;20095;-66
2023/05/28 08:07:36;;;;;;;5.18;2.20;;;16.50;83.40;;;;;;10491023;28;20016;-65
2023/05/28 08:12:37;;;;;;;4.88;2.50;;;16.50;83.50;;;;;;10488256;28;20533;-66
2023/05/28 08:17:37;;;;;;;5.85;2.78;;;16.60;83.60;;;;;;10492633;28;20020;-65
2023/05/28 08:22:38;;;;;;;5.22;2.72;;;16.60;83.60;;;;;;10489308;28;20028;-66
2023/05/28 08:27:39;;;;;;;6.80;2.97;;;16.60;83.60;;;;;;10489608;28;20028;-65
2023/05/28 08:32:39;;;;;;;5.35;3.00;;;16.70;83.60;;;;;;10487786;28;20027;-66
2023/05/28 08:37:40;;;;;;;6.15;2.63;;;16.70;83.50;;;;;;10481601;28;20471;-66
2023/05/28 08:42:45;;;;;;;6.10;3.08;;;16.80;83.50;;;;;;10487438;28;20064;-66
2023/05/28 08:47:48;;;;;;;5.80;3.00;;;16.80;83.50;;;;;;10480255;28;20476;-66
2023/05/28 08:52:50;;;;;;;5.97;3.00;;;16.90;83.50;;;;;;10486758;28;20407;-66
2023/05/28 08:57:52;;;;;;;6.72;2.47;;;16.90;83.40;;;;;;10490055;28;20025;-68
2023/05/28 09:02:53;;;;;;;5.10;2.63;;;17.00;83.50;;;;;;10495980;28;20110;-68
2023/05/28 09:07:53;;;;;;;9.43;3.25;;;17.00;83.50;;;;;;10494818;28;20023;-68
2023/05/28 09:12:59;;;;;;;6.68;3.08;;;17.00;83.40;;;;;;10488229;28;20035;-68
2023/05/28 09:18:00;;;;;;;5.32;2.75;;;17.10;83.50;;;;;;10483266;28;20025;-67
2023/05/28 09:23:04;;;;;;;4.75;3.05;;;17.10;83.50;;;;;;10490225;28;20025;-67
2023/05/28 09:28:05;;;;;;;5.35;2.80;;;17.20;83.50;;;;;;10479886;28;20028;-67
2023/05/28 09:33:07;;;;;;;7.65;3.65;;;17.20;83.40;;;;;;10483514;28;20020;-68
2023/05/28 09:38:11;;;;;;;6.72;3.38;;;17.30;83.40;;;;;;10492311;28;20016;-67
2023/05/28 09:43:12;;;;;;;5.78;2.88;;;17.40;83.40;;;;;;10500242;28;20012;-67
2023/05/28 09:48:13;;;;;;;6.32;3.08;;;17.40;83.40;;;;;;10488557;28;20021;-68
2023/05/28 09:53:14;;;;;;;6.22;3.40;;;17.50;83.50;;;;;;10473047;28;20429;-67
2023/05/28 09:58:17;;;;;;;7.90;3.53;;;17.50;83.40;;;;;;10487884;28;20019;-67
2023/05/28 10:03:47;;;;;;;7.22;3.25;;;17.60;83.40;;;;;;10499115;28;20024;-67
2023/05/28 10:08:51;;;;;;;6.55;3.25;;;17.60;83.40;;;;;;10482251;28;20032;-68
2023/05/28 10:13:52;;;;;;;8.43;3.28;;;17.70;83.40;;;;;;10483438;28;20025;-67
2023/05/28 10:19:02;;;;;;;7.28;3.40;;;17.70;83.40;;;;;;10476762;28;20060;-67
2023/05/28 10:24:04;;;;;;;6.88;3.55;;;17.70;83.40;;;;;;10487289;28;20024;-67
2023/05/28 10:29:09;;;;;;;5.85;3.03;;;17.80;83.40;;;;;;10479154;28;20043;-67
2023/05/28 10:34:15;;;;;;;6.68;3.42;;;17.90;83.40;;;;;;10481302;28;20048;-67
2023/05/28 10:39:16;;;;;;;7.45;3.08;;;17.90;83.90;;;;;;10479402;28;20017;-67
2023/05/28 10:44:18;;;;;;;5.15;2.85;;;18.00;83.20;;;;;;10481248;28;20028;-67
2023/05/28 10:49:20;;;;;;;9.15;3.92;;;18.00;83.20;;;;;;10483973;28;20055;-67
2023/05/28 10:54:44;;;;;;;9.30;3.35;;;18.00;83.10;;;;;;10470590;28;20391;-67
2023/05/28 10:59:49;;;;;;;6.00;3.00;;;18.20;83.20;;;;;;10476422;28;20021;-68
2023/05/28 11:05:00;;;;;;;6.63;3.13;;;18.20;83.10;;;;;;10475780;28;20020;-67
2023/05/28 11:10:03;;;;;;;7.30;3.00;;;18.30;83.20;;;;;;10471262;28;20399;-68
2023/05/28 11:15:08;;;;;;;5.53;3.25;;;18.30;83.00;;;;;;10471652;28;20024;-68
2023/05/28 11:20:21;;;;;;;6.15;3.38;;;18.40;82.90;;;;;;10483755;28;20107;-67
2023/05/28 11:25:25;;;;;;;5.30;2.90;;;18.50;82.80;;;;;;10481013;28;20095;-68
2023/05/28 11:30:26;;;;;;;4.75;2.55;;;18.50;82.60;;;;;;10490171;28;20036;-67
2023/05/28 11:35:26;;;;;;;6.68;2.83;;;18.50;82.50;;;;;;10476481;28;20021;-67
2023/05/28 11:40:33;;;;;;;5.43;3.08;;;18.60;82.20;;;;;;10483683;28;20515;-68
2023/05/28 11:45:41;;;;;;;5.60;2.88;;;18.70;82.00;;;;;;10476894;28;20013;-68
2023/05/28 11:50:42;;;;;;;4.95;2.85;;;18.80;82.00;;;;;;10476530;28;20036;-67
2023/05/28 11:55:42;;;;;;;10.45;2.97;;;18.70;81.80;;;;;;10472525;28;20048;-67
2023/05/28 12:00:43;;;;;;;6.13;3.40;;;18.90;81.80;;;;;;10496136;28;20042;-67
2023/05/28 12:05:44;;;;;;;5.07;2.80;;;18.90;81.60;;;;;;10493540;28;20020;-68
2023/05/28 12:10:45;;;;;;;6.28;2.95;;;19.10;81.30;;;;;;10488447;28;20621;-68
2023/05/28 12:15:46;;;;;;;5.15;2.80;;;19.10;81.10;;;;;;10488217;28;20099;-68
2023/05/28 12:20:46;;;;;;;5.80;3.30;;;19.10;80.90;;;;;;10484563;28;20029;-68
2023/05/28 12:25:48;;;;;;;5.43;2.97;;;19.20;80.80;;;;;;10488940;28;20033;-68
2023/05/28 12:30:52;;;;;;;6.72;2.92;;;19.30;80.60;;;;;;10491593;28;20066;-68
2023/05/28 12:35:53;;;;;;;4.57;2.70;;;19.40;80.60;;;;;;10486096;28;20083;-68
2023/05/28 12:40:54;;;;;;;4.60;2.63;;;19.40;80.30;;;;;;10485744;28;20067;-68
2023/05/28 12:45:54;;;;;;;6.20;3.22;;;19.50;80.10;;;;;;10475690;28;20534;-67
2023/05/28 12:50:55;;;;;;;7.35;2.90;;;19.50;80.00;;;;;;10483181;28;20489;-68
2023/05/28 12:55:55;;;;;;;5.15;2.78;;;19.60;79.80;;;;;;10494733;28;20077;-68
2023/05/28 13:00:56;;;;;;;5.53;2.92;;;19.60;79.80;;;;;;10490629;28;20047;-68
2023/05/28 13:05:57;;;;;;;6.72;3.25;;;19.80;79.70;;;;;;10477581;28;20062;-67
2023/05/28 13:10:57;;;;;;;7.22;3.25;;;19.80;79.50;;;;;;10482279;28;20035;-68
2023/05/28 13:15:58;;;;;;;5.47;3.10;;;19.80;79.30;;;;;;10490411;28;20111;-67
2023/05/28 13:20:58;;;;;;;4.65;2.70;;;19.90;79.10;;;;;;10495726;28;20032;-68
2023/05/28 13:25:59;;;;;;;4.65;2.60;;;20.00;78.90;;;;;;10488491;28;20033;-68
2023/05/28 13:31:00;;;;;;;5.82;3.15;;;20.10;78.50;;;;;;10489848;28;20275;-67
2023/05/28 13:36:00;;;;;;;5.00;2.63;;;20.20;78.20;;;;;;10485653;28;20046;-67
2023/05/28 13:41:02;;;;;;;6.22;2.65;;;20.30;78.20;;;;;;10481650;28;20025;-68
2023/05/28 13:46:04;;;;;;;3.55;2.53;;;20.40;77.90;;;;;;10481067;28;20017;-68
2023/05/28 13:51:05;;;;;;;5.78;2.60;;;20.50;77.90;;;;;;10487473;28;20039;-67
2023/05/28 13:56:06;;;;;;;5.82;2.47;;;20.70;77.80;;;;;;10492786;28;20032;-67
2023/05/28 14:01:07;;;;;;;4.05;2.30;;;20.70;77.50;;;;;;10497304;28;20085;-67
2023/05/28 14:06:07;;;;;;;5.15;2.60;;;20.90;77.50;;;;;;10476778;28;20032;-67
2023/05/28 14:11:08;;;;;;;5.45;2.58;;;20.90;77.10;;;;;;10487391;28;20303;-68
2023/05/28 14:16:09;;;;;;;3.55;2.33;;;21.00;77.00;;;;;;10481662;28;20054;-68
2023/05/28 14:21:11;;;;;;;4.43;2.55;;;21.10;77.20;;;;;;10480095;28;20074;-68
2023/05/28 14:26:11;;;;;;;4.78;2.45;;;21.20;77.10;;;;;;10480889;28;20035;-68
2023/05/28 14:31:12;;;;;;;3.60;2.22;;;21.30;77.40;;;;;;10487555;28;20032;-67
2023/05/28 14:36:15;;;;;;;4.75;2.50;;;21.40;77.50;;;;;;10484602;28;20159;-67
2023/05/28 14:41:16;;;;;;;5.10;2.47;;;21.50;77.50;;;;;;10492095;28;20025;-67
2023/05/28 14:46:16;;;;;;;4.55;2.42;;;21.60;77.40;;;;;;10485780;28;20389;-67
2023/05/28 14:51:17;;;;;;;6.70;2.72;;;21.60;77.30;;;;;;10489572;28;20028;-67
2023/05/28 14:56:18;;;;;;;5.20;2.08;;;21.70;77.40;;;;;;10494277;28;20157;-67
2023/05/28 15:01:18;;;;;;;3.10;2.08;;;21.80;77.60;;;;;;10486409;28;20024;-67
2023/05/28 15:06:19;;;;;;;3.92;2.30;;;21.90;77.70;;;;;;10488168;28;20032;-67
2023/05/28 15:11:21;;;;;;;3.38;2.08;;;21.90;77.70;;;;;;10481087;28;20040;-68
2023/05/28 15:16:23;;;;;;;4.80;2.22;;;22.00;78.30;;;;;;10485563;28;20526;-68
2023/05/28 15:21:24;;;;;;;3.60;2.33;;;22.10;78.40;;;;;;10479752;28;20017;-67
2023/05/28 15:26:24;;;;;;;5.13;2.28;;;22.10;77.70;;;;;;10474363;28;20024;-67
2023/05/28 15:31:26;;;;;;;6.38;2.50;;;22.20;77.80;;;;;;10469842;28;20082;-68
2023/05/28 15:36:26;;;;;;;7.13;3.28;;;22.20;77.80;;;;;;10486295;28;20052;-68
2023/05/28 15:41:27;;;;;;;5.40;2.60;;;22.30;77.80;;;;;;10482059;28;20531;-67
2023/05/28 15:46:29;;;;;;;6.38;2.50;;;22.30;77.70;;;;;;10479406;28;20032;-68
2023/05/28 15:51:30;;;;;;;4.43;2.80;;;22.40;77.90;;;;;;10483744;28;20420;-67
2023/05/28 15:56:31;;;;;;;3.75;2.40;;;22.30;78.10;;;;;;10482759;28;20162;-67
2023/05/28 16:01:32;;;;;;;5.93;2.60;;;22.30;78.30;;;;;;10483833;28;20028;-68
2023/05/28 16:06:33;;;;;;;3.55;2.30;;;22.20;78.50;;;;;;10493495;28;20040;-67
2023/05/28 16:11:36;;;;;;;3.22;2.30;;;22.20;78.80;;;;;;10482531;28;20534;-67
2023/05/28 16:16:38;;;;;;;3.10;2.20;;;22.10;79.00;;;;;;10483861;28;20625;-67
2023/05/28 16:21:39;;;;;;;5.15;2.47;;;22.10;79.40;;;;;;10485285;28;20546;-67
2023/05/28 16:26:40;;;;;;;4.88;2.50;;;22.00;79.70;;;;;;10483329;28;20488;-67
2023/05/28 16:31:42;;;;;;;4.18;2.47;;;21.90;79.90;;;;;;10490867;28;20369;-68
2023/05/28 16:36:45;;;;;;;4.53;2.20;;;21.90;80.10;;;;;;10480977;28;20021;-68
2023/05/28 16:41:46;;;;;;;6.30;2.70;;;21.80;80.10;;;;;;10471704;28;20456;-67
2023/05/28 16:46:49;;;;;;;3.35;2.50;;;21.70;80.30;;;;;;10477956;28;20099;-67
2023/05/28 16:51:50;;;;;;;5.63;2.05;;;21.70;80.60;;;;;;10479937;28;20021;-68
2023/05/28 16:56:51;;;;;;;3.80;2.35;;;21.60;80.80;;;;;;10484427;28;20020;-67
2023/05/28 17:01:53;;;;;;;3.90;2.30;;;21.60;80.90;;;;;;10481594;28;20487;-67
2023/05/28 17:06:57;;;;;;;4.22;2.35;;;21.50;81.00;;;;;;10486384;28;20021;-68
2023/05/28 17:11:57;;;;;;;3.63;2.40;;;21.40;81.20;;;;;;10478612;28;20025;-67
2023/05/28 17:16:59;;;;;;;6.10;2.45;;;21.40;81.20;;;;;;10477866;28;20508;-67
2023/05/28 17:21:59;;;;;;;3.70;2.35;;;21.30;81.40;;;;;;10488076;28;20060;-68
2023/05/28 17:27:00;;;;;;;3.70;2.13;;;21.30;81.50;;;;;;10487285;28;20428;-67
2023/05/28 17:32:00;;;;;;;4.88;2.78;;;21.20;81.60;;;;;;10476127;28;20040;-67
2023/05/28 17:37:01;;;;;;;5.88;2.40;;;21.10;81.60;;;;;;10482777;28;20104;-67
2023/05/28 17:42:02;;;;;;;6.43;2.53;;;21.10;81.80;;;;;;10481967;28;20033;-67
2023/05/28 17:47:03;;;;;;;5.78;2.70;;;21.00;81.80;;;;;;10481101;28;20059;-68
2023/05/28 17:52:04;;;;;;;4.68;2.35;;;21.00;81.90;;;;;;10482715;28;20036;-67
2023/05/28 17:57:05;;;;;;;5.10;2.67;;;20.90;81.90;;;;;;10477288;28;20527;-68
2023/05/28 18:02:06;;;;;;;4.25;2.60;;;20.90;82.00;;;;;;10486482;28;20174;-67
2023/05/28 18:07:06;;;;;;;5.63;2.65;;;20.70;82.00;;;;;;10483979;28;20029;-67
2023/05/28 18:12:07;;;;;;;5.90;2.65;;;20.80;82.00;;;;;;10479726;28;20692;-68
2023/05/28 18:17:08;;;;;;;6.65;3.03;;;20.70;82.00;;;;;;10487270;28;20024;-67
2023/05/28 18:22:08;;;;;;;7.38;2.63;;;20.60;81.90;;;;;;10484623;28;20031;-67
2023/05/28 18:27:09;;;;;;;6.03;2.72;;;20.60;82.20;;;;;;10485837;28;20032;-67
2023/05/28 18:32:09;;;;;;;5.38;2.80;;;20.60;82.30;;;;;;10485952;28;20032;-67
2023/05/28 18:37:11;;;;;;;4.47;2.90;;;20.50;82.50;;;;;;10486214;28;20028;-67
2023/05/28 18:42:11;;;;;;;5.22;2.75;;;20.40;82.60;;;;;;10484782;28;20036;-67
2023/05/28 18:47:12;;;;;;;5.15;2.67;;;20.40;82.60;;;;;;10485374;28;20027;-67
2023/05/28 18:52:13;;;;;;;4.72;3.00;;;20.30;82.70;;;;;;10489432;28;20103;-67
2023/05/28 18:57:13;;;;;;;3.40;2.53;;;20.30;82.60;;;;;;10495762;28;20365;-68
2023/05/28 19:02:14;;;;;;;5.05;2.60;;;20.20;82.70;;;;;;10473276;28;20021;-67
2023/05/28 19:07:16;;;;;;;3.55;2.80;;;20.20;82.90;;;;;;10493935;28;20017;-68
2023/05/28 19:12:17;;;;;;;4.75;2.85;;;20.10;82.90;;;;;;10481577;28;20033;-67
2023/05/28 19:17:18;;;;;;;5.90;3.25;;;20.10;83.00;;;;;;10477998;28;20021;-67
2023/05/28 19:22:19;;;;;;;4.13;3.13;;;19.90;82.80;;;;;;10478963;28;20028;-67
2023/05/28 19:27:19;;;;;;;5.80;3.30;;;19.90;82.90;;;;;;10489524;28;20493;-67
2023/05/28 19:32:21;;;;;;;7.50;3.40;;;19.80;82.90;;;;;;10482619;28;20025;-67
2023/05/28 19:37:22;;;;;;;5.53;3.13;;;19.80;82.90;;;;;;10494832;28;20381;-67
2023/05/28 19:42:28;;;;;;;4.55;3.30;;;19.70;82.90;;;;;;10486920;28;20016;-67
2023/05/28 19:47:29;;;;;;;5.97;3.53;;;19.70;83.10;;;;;;10478540;28;20021;-68
2023/05/28 19:52:29;;;;;;;5.15;3.10;;;19.60;83.00;;;;;;10482578;28;20727;-67
2023/05/28 19:57:30;;;;;;;4.57;3.08;;;19.50;83.10;;;;;;10486651;28;20251;-68
2023/05/28 20:02:32;;;;;;;5.90;3.47;;;19.50;83.10;;;;;;10484047;28;20102;-67
2023/05/28 20:07:32;;;;;;;5.00;3.33;;;19.40;83.10;;;;;;10484716;28;20021;-67
2023/05/28 20:12:33;;;;;;;5.20;3.00;;;19.40;83.10;;;;;;10485792;28;20040;-67
2023/05/28 20:17:34;;;;;;;5.57;2.90;;;19.30;83.00;;;;;;10492982;28;20063;-67
2023/05/28 20:22:34;;;;;;;4.85;2.45;;;19.30;83.10;;;;;;10494230;28;20049;-67
2023/05/28 20:27:35;;;;;;;6.57;2.80;;;19.20;83.00;;;;;;10486596;28;20016;-67
2023/05/28 20:32:36;;;;;;;6.40;2.85;;;19.30;83.10;;;;;;10477617;28;20480;-68
2023/05/28 20:37:37;;;;;;;6.22;3.03;;;19.10;82.90;;;;;;10485910;28;20039;-67
2023/05/28 20:42:37;;;;;;;4.72;2.30;;;19.00;82.90;;;;;;10489456;28;20020;-67
2023/05/28 20:47:38;;;;;;;6.18;2.70;;;19.00;82.80;;;;;;10487506;28;20028;-68
2023/05/28 20:52:40;;;;;;;4.13;2.40;;;18.90;82.80;;;;;;10483154;28;20028;-67
2023/05/28 20:57:45;;;;;;;6.65;2.28;;;18.90;82.70;;;;;;10482061;28;20021;-68
2023/05/28 21:02:46;;;;;;;5.72;2.63;;;18.80;82.60;;;;;;10470929;28;20274;-67
2023/05/28 21:07:47;;;;;;;4.30;2.47;;;18.80;82.60;;;;;;10474092;28;20034;-67
2023/05/28 21:12:47;;;;;;;7.00;2.50;;;18.80;82.50;;;;;;10480500;28;20481;-67
2023/05/28 21:17:48;;;;;;;7.38;2.70;;;18.70;82.40;;;;;;10494204;28;20032;-67
2023/05/28 21:22:49;;;;;;;5.90;2.42;;;18.60;82.40;;;;;;10478912;28;20112;-67
2023/05/28 21:27:50;;;;;;;5.75;2.03;;;18.60;82.30;;;;;;10484030;28;20252;-67
2023/05/28 21:32:51;;;;;;;4.45;2.40;;;18.50;82.20;;;;;;10486959;28;20020;-67
2023/05/28 21:37:51;;;;;;;8.10;2.65;;;18.40;82.10;;;;;;10478148;28;20271;-67
2023/05/28 21:42:52;;;;;;;4.13;2.22;;;18.40;82.10;;;;;;10478139;28;20416;-67
2023/05/28 21:47:53;;;;;;;6.68;2.47;;;18.40;82.10;;;;;;10477550;28;20020;-67
2023/05/28 21:52:56;;;;;;;5.80;2.38;;;18.30;82.00;;;;;;10480683;28;20476;-67
2023/05/28 21:57:57;;;;;;;5.13;2.70;;;18.30;82.00;;;;;;10491681;28;20052;-67
2023/05/28 22:02:58;;;;;;;7.85;2.47;;;18.20;81.90;;;;;;10493565;28;20107;-67
2023/05/28 22:07:59;;;;;;;8.07;2.45;;;18.20;81.90;;;;;;10473597;28;20100;-68
2023/05/28 22:13:01;;;;;;;7.22;2.30;;;18.10;81.80;;;;;;10488196;28;20328;-68
2023/05/28 22:18:03;;;;;;;10.18;2.60;;;18.10;81.80;;;;;;10484489;28;20020;-67
2023/05/28 22:23:03;;;;;;;5.80;2.22;;;18.00;81.70;;;;;;10484537;28;20519;-68
2023/05/28 22:28:04;;;;;;;4.32;2.20;;;18.00;81.70;;;;;;10487561;28;20108;-67
2023/05/28 22:33:04;;;;;;;6.85;2.30;;;17.90;81.70;;;;;;10479710;28;20028;-67
2023/05/28 22:38:05;;;;;;;7.93;2.40;;;17.90;81.60;;;;;;10484938;28;20040;-67
2023/05/28 22:43:05;;;;;;;11.45;2.10;;;17.90;81.70;;;;;;10477508;28;20051;-68
2023/05/28 22:48:07;;;;;;;5.60;2.00;;;17.80;81.60;;;;;;10489282;28;20035;-68
2023/05/28 22:53:08;;;;;;;5.53;2.10;;;17.70;81.50;;;;;;10489347;28;20024;-67
2023/05/28 22:58:10;;;;;;;9.40;2.40;;;17.70;81.50;;;;;;10472725;28;20036;-67
2023/05/28 23:03:10;;;;;;;8.52;2.17;;;17.70;81.40;;;;;;10481471;28;20044;-67
2023/05/28 23:08:11;;;;;;;6.05;2.00;;;17.60;81.40;;;;;;10479603;28;20021;-67
2023/05/28 23:13:11;;;;;;;4.38;1.85;;;17.60;81.30;;;;;;10472971;28;20028;-67
2023/05/28 23:18:17;;;;;;;7.55;2.22;;;17.50;81.20;;;;;;10480718;28;20048;-68
2023/05/28 23:23:18;;;;;;;8.68;2.10;;;17.50;81.20;;;;;;10479987;28;20035;-67
2023/05/28 23:28:19;;;;;;;5.88;2.17;;;17.40;81.10;;;;;;10485794;28;20021;-68
2023/05/28 23:33:23;;;;;;;6.78;1.83;;;17.40;81.00;;;;;;10487999;28;20036;-67
2023/05/28 23:38:23;;;;;;;6.72;1.90;;;17.40;81.00;;;;;;10484571;28;20028;-67
2023/05/28 23:43:24;;;;;;;8.43;1.88;;;17.30;80.90;;;;;;10494320;28;20024;-67
2023/05/28 23:48:25;;;;;;;9.98;1.95;;;17.30;80.80;;;;;;10468357;28;20024;-68
2023/05/28 23:53:26;;;;;;;3.67;1.73;;;17.20;80.80;;;;;;10491076;28;20043;-68
2023/05/28 23:58:26;;;;;;;3.13;1.40;;;17.20;80.70;;;;;;10483655;28;20029;-68
